• Join FlightAware (Why Join?)
  • Login
  • US Flag 
02:06AM EDT


 

Airport Tracker/Info


-or-


 

Live Flight TrackerFlight Track Log ✈ UAL4846 ✈ 2013年 04月 11日 ✈ KEWR - KPVD

Flight Track Log - Related Links

Times and Time Zones

All times are in EDT time to prevent confusion due to time zone crossing. See the UAL4846 flight status page for this flight to view local times or setup timezone preferences in your user account.

Time Position Orientation Groundspeed Altitude Reporting Facility
EDT Latitude Longitude Course Direction KTS MPH feet Rate Location/Type
12:49PM 40.9333 -73.5516 63° Northeast  Level Estimated
12:50PM 40.9632 -73.4742 63° Northeast  Level Estimated
12:51PM 40.9930 -73.3967 63° Northeast  Level Estimated
12:52PM 41.0228 -73.3191 63° Northeast  Level Estimated
12:53PM 41.0525 -73.2414 63° Northeast  Level Estimated
12:54PM 41.0821 -73.1637 63° Northeast  Level Estimated
12:55PM 41.1117 -73.0859 63° Northeast  Level Estimated
12:56PM 41.1413 -73.0080 63° Northeast  Level Estimated
12:57PM 41.1708 -72.9301 63° Northeast  Level Estimated
12:58PM 41.2002 -72.8521 63° Northeast  Level Estimated
12:59PM 41.2296 -72.7740 63° Northeast  Level Estimated
01:00PM 41.2590 -72.6958 63° Northeast  Level Estimated
01:01PM 41.2883 -72.6176 63° Northeast  Level Estimated
01:02PM 41.3175 -72.5393 64° Northeast  Level Estimated
01:03PM 41.3467 -72.4610 64° Northeast  Level Estimated
01:04PM 41.3758 -72.3825 64° Northeast  Level Estimated
01:05PM 41.4049 -72.3040 64° Northeast  Level Estimated
01:06PM 41.4339 -72.2254 64° Northeast  Level Estimated
01:07PM 41.4629 -72.1468 64° Northeast  Level Estimated
01:08PM 41.4918 -72.0681 64° Northeast  Level Estimated
01:09PM 41.5207 -71.9893 64° Northeast  Level Estimated
01:10PM 41.5495 -71.9105 64° Northeast  Level Estimated
01:11PM 41.5783 -71.8316 64° Northeast  Level Estimated
01:12PM 41.6070 -71.7526 64° Northeast  Level Estimated
01:13PM 41.6356 -71.6735 64° Northeast  Level Estimated
01:14PM 41.6642 -71.5944 64° Northeast  Level Estimated
01:15PM 41.6928 -71.5152 64° Northeast  Level Estimated
01:16PM 41.7212 -71.4359 64° Northeast  Level Estimated
01:17PM 41.7240 -71.4282 64° Northeast  Level Estimated
01:18PM 41.7240 -71.4282 226° Southwest  Level Estimated
01:19PM 41.7240 -71.4282 226° Southwest  Level Estimated
01:20PM 41.7240 -71.4282 226° Southwest  Level Estimated
01:21PM 41.7240 -71.4282 226° Southwest  Level Estimated
01:22PM 41.7240 -71.4282 226° Southwest  Level Estimated
01:23PM 41.7240 -71.4282 226° Southwest  Level Estimated
01:24PM 41.7240 -71.4282 226° Southwest  Level Estimated
01:25PM 41.7240 -71.4282 226° Southwest  Level Estimated
01:26PM 41.7240 -71.4282 226° Southwest  Level Estimated
01:27PM 41.7240 -71.4282 226° Southwest  Level Estimated
01:28PM 41.7240 -71.4282 226° Southwest  Level Estimated
01:29PM 41.7240 -71.4282 226° Southwest  Level Estimated
01:30PM 41.7240 -71.4282 226° Southwest  Level Estimated
01:31PM 41.7240 -71.4282 226° Southwest  Level Estimated
01:32PM 41.7240 -71.4282 226° Southwest  Level Estimated